createdAt,value
2022-11-16T00:02:15.767Z,28.83
2022-11-16T00:04:44.503Z,30.47
2022-11-16T00:07:13.292Z,31.73
2022-11-16T00:09:43.360Z,29.93
2022-11-16T00:12:12.929Z,29.70
2022-11-16T00:14:41.665Z,30.70
2022-11-16T00:17:10.308Z,31.37
2022-11-16T00:19:39.011Z,31.23
2022-11-16T00:22:07.630Z,30.97
2022-11-16T00:24:36.374Z,29.37
2022-11-16T00:27:06.548Z,27.87
2022-11-16T00:29:35.140Z,28.40
2022-11-16T00:32:03.821Z,27.37
2022-11-16T00:34:32.528Z,29.10
2022-11-16T00:37:01.178Z,29.40
2022-11-16T00:39:29.882Z,26.93
2022-11-16T00:41:58.502Z,27.13
2022-11-16T00:44:28.798Z,27.13
2022-11-16T00:46:57.506Z,28.30
2022-11-16T00:49:26.270Z,25.90
2022-11-16T00:51:54.949Z,25.67
2022-11-16T00:54:23.780Z,24.80
2022-11-16T00:56:52.413Z,25.20
2022-11-16T00:59:21.044Z,26.60
2022-11-16T01:01:51.112Z,25.77
2022-11-16T01:04:19.764Z,24.23
2022-11-16T01:06:48.505Z,22.30
2022-11-16T01:09:17.513Z,25.90
2022-11-16T01:12:03.724Z,26.57
2022-11-16T01:14:32.531Z,25.10
2022-11-16T01:17:02.723Z,25.57
2022-11-16T01:19:31.694Z,25.00
2022-11-16T01:22:01.140Z,26.83
2022-11-16T01:24:29.833Z,26.20
2022-11-16T01:26:58.831Z,22.53
2022-11-16T01:29:28.346Z,24.20
2022-11-16T01:31:57.590Z,25.70
2022-11-16T01:34:28.548Z,23.43
2022-11-16T01:36:57.288Z,23.27
2022-11-16T01:39:26.172Z,23.63
2022-11-16T01:41:55.310Z,22.30
2022-11-16T01:45:01.223Z,23.10
2022-11-16T01:47:31.288Z,23.20
2022-11-16T01:50:10.316Z,25.50
2022-11-16T01:52:43.250Z,20.73
2022-11-16T01:55:12.744Z,20.63
2022-11-16T01:57:45.602Z,20.30
2022-11-16T02:00:16.422Z,19.90
2022-11-16T02:02:45.318Z,21.43
2022-11-16T02:05:19.370Z,22.77
2022-11-16T02:08:30.356Z,22.87
2022-11-16T02:11:16.525Z,20.57
2022-11-16T02:13:59.800Z,19.10
2022-11-16T02:16:38.502Z,23.70
2022-11-16T02:19:24.214Z,20.37
2022-11-16T02:22:01.055Z,23.13
2022-11-16T02:24:46.070Z,21.17
2022-11-16T02:27:52.953Z,21.70
2022-11-16T02:30:24.038Z,19.90
2022-11-16T02:32:57.457Z,18.90
2022-11-16T02:35:30.726Z,20.73
2022-11-16T02:38:03.893Z,23.50
2022-11-16T02:40:34.653Z,21.33
2022-11-16T02:43:08.766Z,23.03
2022-11-16T02:45:44.157Z,23.07
2022-11-16T02:48:16.427Z,20.33
2022-11-16T02:50:46.727Z,22.63
2022-11-16T02:53:15.746Z,22.37
2022-11-16T02:55:44.599Z,24.90
2022-11-16T02:58:15.542Z,24.23
2022-11-16T03:00:50.189Z,25.17
2022-11-16T03:03:26.421Z,25.90
2022-11-16T03:06:00.291Z,26.60
2022-11-16T03:08:33.389Z,27.03
2022-11-16T03:11:22.501Z,25.63
2022-11-16T03:13:52.524Z,26.23
2022-11-16T03:16:27.212Z,24.30
2022-11-16T03:18:59.619Z,27.17
2022-11-16T03:21:34.524Z,26.20
2022-11-16T03:24:03.652Z,29.90
2022-11-16T03:26:37.962Z,28.47
2022-11-16T03:29:15.201Z,24.20
2022-11-16T03:31:50.424Z,27.07
2022-11-16T03:34:21.930Z,26.60
2022-11-16T03:36:54.451Z,29.67
2022-11-16T03:39:27.420Z,29.10
2022-11-16T03:41:58.605Z,30.33
2022-11-16T03:44:28.093Z,33.67
2022-11-16T03:46:58.297Z,29.40
2022-11-16T03:49:26.961Z,28.90
2022-11-16T03:51:56.044Z,30.87
2022-11-16T03:54:24.652Z,27.87
2022-11-16T03:56:53.210Z,28.30
2022-11-16T03:59:21.816Z,26.10
2022-11-16T04:01:50.440Z,27.80
2022-11-16T04:04:37.771Z,28.07
2022-11-16T04:07:23.983Z,26.40
2022-11-16T04:10:10.075Z,27.47
2022-11-16T04:12:56.713Z,25.63
2022-11-16T04:15:43.023Z,25.77
2022-11-16T04:18:29.077Z,31.83
2022-11-16T04:21:16.787Z,29.67
2022-11-16T04:24:02.872Z,28.63
2022-11-16T04:26:45.236Z,32.77
2022-11-16T04:29:15.478Z,31.63
2022-11-16T04:32:01.234Z,29.73
2022-11-16T04:34:47.389Z,28.97
2022-11-16T04:37:36.962Z,31.03
2022-11-16T04:40:06.286Z,25.60
2022-11-16T04:42:34.852Z,33.07
2022-11-16T04:45:21.100Z,29.23
2022-11-16T04:47:50.684Z,29.67
2022-11-16T04:50:19.822Z,30.87
2022-11-16T04:52:50.132Z,30.93
2022-11-16T04:55:18.833Z,29.27
2022-11-16T04:57:47.624Z,26.20
2022-11-16T05:00:17.235Z,30.57
2022-11-16T05:02:45.913Z,47.47
2022-11-16T05:05:15.223Z,30.27
2022-11-16T05:07:44.487Z,30.93
2022-11-16T05:10:15.136Z,33.43
2022-11-16T05:12:43.737Z,27.80
2022-11-16T05:15:12.631Z,31.70
2022-11-16T05:17:41.509Z,30.33
2022-11-16T05:20:29.172Z,28.37
2022-11-16T05:22:58.750Z,33.00
2022-11-16T05:25:32.632Z,29.17
2022-11-16T05:28:04.556Z,33.43
2022-11-16T05:30:33.165Z,30.23
2022-11-16T05:33:02.036Z,30.80
2022-11-16T05:35:30.681Z,28.10
2022-11-16T05:37:59.456Z,30.73
2022-11-16T05:40:29.529Z,31.27
2022-11-16T05:42:59.671Z,28.23
2022-11-16T05:45:28.350Z,27.93
2022-11-16T05:47:56.953Z,30.17
2022-11-16T05:50:25.528Z,37.63
2022-11-16T05:52:54.174Z,29.03
2022-11-16T05:55:22.880Z,27.40
2022-11-16T05:57:53.033Z,29.20
2022-11-16T06:00:22.297Z,29.73
2022-11-16T06:02:51.256Z,30.40
2022-11-16T06:05:19.856Z,28.90
2022-11-16T06:07:48.607Z,32.07
2022-11-16T06:10:22.582Z,29.57
2022-11-16T06:12:52.658Z,27.40
2022-11-16T06:15:21.341Z,30.10
2022-11-16T06:17:50.219Z,26.80
2022-11-16T06:20:19.224Z,29.60
2022-11-16T06:22:48.486Z,29.90
2022-11-16T06:25:17.599Z,30.07
2022-11-16T06:27:46.369Z,27.10
2022-11-16T06:30:17.398Z,27.37
2022-11-16T06:32:46.271Z,27.87
2022-11-16T06:35:15.102Z,30.13
2022-11-16T06:37:43.900Z,26.53
2022-11-16T06:40:13.359Z,35.33
2022-11-16T06:42:42.354Z,28.57
2022-11-16T06:45:11.632Z,27.97
2022-11-16T06:47:42.356Z,27.63
2022-11-16T06:50:11.767Z,28.13
2022-11-16T06:52:40.465Z,26.03
2022-11-16T06:55:10.052Z,28.83
2022-11-16T06:57:38.820Z,25.33
2022-11-16T07:00:09.257Z,28.67
2022-11-16T07:02:39.292Z,25.60
2022-11-16T07:05:10.163Z,28.83
2022-11-16T07:07:39.078Z,28.07
2022-11-16T07:10:11.008Z,30.17
2022-11-16T07:12:39.894Z,29.10
2022-11-16T07:15:09.464Z,27.57
2022-11-16T07:17:38.186Z,27.57
2022-11-16T07:20:09.333Z,28.40
2022-11-16T07:22:38.232Z,27.03
2022-11-16T07:25:07.875Z,30.87
2022-11-16T07:27:36.637Z,103.55
2022-11-16T07:30:06.254Z,29.40
2022-11-16T07:32:35.170Z,33.10
2022-11-16T07:35:05.845Z,28.57
2022-11-16T07:37:36.052Z,27.50
2022-11-16T07:40:05.033Z,27.33
2022-11-16T07:42:33.704Z,27.93
2022-11-16T07:45:02.827Z,28.93
2022-11-16T07:47:36.294Z,27.77
2022-11-16T07:50:05.463Z,28.67
2022-11-16T07:52:35.586Z,24.40
2022-11-16T07:55:05.855Z,26.20
2022-11-16T07:57:34.655Z,24.00
2022-11-16T08:00:04.254Z,27.73
2022-11-16T08:02:33.218Z,25.20
2022-11-16T08:05:01.879Z,25.10
2022-11-16T08:07:30.581Z,45.25
2022-11-16T08:10:01.111Z,27.10
2022-11-16T08:12:29.824Z,20.60
2022-11-16T08:14:58.697Z,20.83
2022-11-16T08:17:27.405Z,24.30
2022-11-16T08:19:56.306Z,18.93
2022-11-16T08:22:25.061Z,20.70
2022-11-16T08:24:53.666Z,19.67
2022-11-16T08:27:24.095Z,19.13
2022-11-16T08:29:53.225Z,18.90
2022-11-16T08:32:21.911Z,17.20
2022-11-16T08:34:50.587Z,20.57
2022-11-16T08:37:19.227Z,15.20
2022-11-16T08:39:48.233Z,16.93
2022-11-16T08:42:17.208Z,17.13
2022-11-16T08:44:47.593Z,16.20
2022-11-16T08:47:16.687Z,17.57
2022-11-16T08:49:49.562Z,16.43
2022-11-16T08:52:18.574Z,14.80
2022-11-16T08:54:47.393Z,14.60
2022-11-16T08:57:16.030Z,14.40
2022-11-16T08:59:45.076Z,44.60
2022-11-16T09:02:15.335Z,31.60
2022-11-16T09:04:47.326Z,18.17
2022-11-16T09:07:16.024Z,13.83
2022-11-16T09:09:44.672Z,12.27
2022-11-16T09:12:13.424Z,13.30
2022-11-16T09:14:42.048Z,12.47
2022-11-16T09:17:10.766Z,12.53
2022-11-16T09:19:40.847Z,12.07
2022-11-16T09:22:10.080Z,12.97
2022-11-16T09:24:38.754Z,13.03
2022-11-16T09:27:08.418Z,13.20
2022-11-16T09:29:37.022Z,10.53
2022-11-16T09:32:06.112Z,14.23
2022-11-16T09:34:36.360Z,13.20
2022-11-16T09:37:06.483Z,10.37
2022-11-16T09:39:35.085Z,9.97
2022-11-16T09:42:16.032Z,11.27
2022-11-16T09:45:00.142Z,14.43
2022-11-16T09:47:46.382Z,13.10
2022-11-16T09:50:28.469Z,9.57
2022-11-16T09:53:06.474Z,9.73
2022-11-16T09:55:40.678Z,13.50
2022-11-16T09:58:16.144Z,10.77
2022-11-16T10:00:51.046Z,11.13
2022-11-16T10:03:19.782Z,10.13
2022-11-16T10:05:58.824Z,12.10
2022-11-16T10:08:41.490Z,15.00
2022-11-16T10:11:29.341Z,11.17
2022-11-16T10:14:07.213Z,11.67
2022-11-16T10:16:42.879Z,11.17
2022-11-16T10:19:23.839Z,22.98
2022-11-16T10:22:00.045Z,12.90
2022-11-16T10:24:48.279Z,10.83
2022-11-16T10:27:34.688Z,10.90
2022-11-16T10:30:10.557Z,8.63
2022-11-16T10:32:45.998Z,9.47
2022-11-16T10:35:20.075Z,16.63
2022-11-16T10:37:51.542Z,17.00
2022-11-16T10:40:40.883Z,9.50
2022-11-16T10:43:15.229Z,22.23
2022-11-16T10:45:51.046Z,23.27
2022-11-16T10:48:30.489Z,17.33
2022-11-16T10:50:59.599Z,11.33
2022-11-16T10:53:30.362Z,10.87
2022-11-16T10:56:15.088Z,10.83
2022-11-16T10:58:55.376Z,10.43
2022-11-16T11:01:36.446Z,11.40
2022-11-16T11:04:23.748Z,13.83
2022-11-16T11:06:54.842Z,29.97
2022-11-16T11:09:32.744Z,26.90
2022-11-16T11:12:31.794Z,74.13
2022-11-16T11:15:04.362Z,89.07
2022-11-16T11:17:34.618Z,325.10
2022-11-16T11:20:05.792Z,46.67
2022-11-16T11:22:36.641Z,57.90
2022-11-16T11:25:20.352Z,13.70
2022-11-16T11:27:52.308Z,68.37
2022-11-16T11:30:22.705Z,59.30
2022-11-16T11:32:53.161Z,269.97
2022-11-16T11:35:26.215Z,450.70
2022-11-16T11:37:58.085Z,598.70
2022-11-16T11:40:28.610Z,895.07
2022-11-16T11:43:02.356Z,368.02
2022-11-16T11:45:39.060Z,753.20
2022-11-16T11:48:26.004Z,370.97
2022-11-16T11:50:56.498Z,468.73
2022-11-16T11:53:42.286Z,175.97
2022-11-16T11:56:13.992Z,294.27
2022-11-16T11:58:45.076Z,251.80
2022-11-16T12:01:47.059Z,387.63
2022-11-16T12:04:49.852Z,365.90
2022-11-16T12:07:30.774Z,99.73
2022-11-16T12:10:06.444Z,46.00
2022-11-16T12:12:47.848Z,33.60
2022-11-16T12:15:45.011Z,39.07
2022-11-16T12:18:25.420Z,45.97
2022-11-16T12:21:01.369Z,101.80
2022-11-16T12:24:00.641Z,16.77
2022-11-16T12:26:41.426Z,32.47
2022-11-16T12:29:25.741Z,52.37
2022-11-16T12:32:22.148Z,23.33
2022-11-16T12:35:10.681Z,37.87
2022-11-16T12:37:49.962Z,74.63
2022-11-16T12:40:31.613Z,41.27
2022-11-16T12:43:05.764Z,25.90
2022-11-16T12:45:58.816Z,19.87
2022-11-16T12:48:42.076Z,33.80
2022-11-16T12:51:25.230Z,119.53
2022-11-16T12:54:27.680Z,52.53
2022-11-16T12:57:04.489Z,57.70
2022-11-16T12:59:56.715Z,42.63
2022-11-16T13:02:42.972Z,29.93
2022-11-16T13:05:19.788Z,37.97
2022-11-16T13:07:51.751Z,41.10
2022-11-16T13:10:24.319Z,25.53
2022-11-16T13:13:21.987Z,66.60
2022-11-16T13:15:48.161Z,100.93
2022-11-16T13:18:21.220Z,33.10
2022-11-16T13:20:57.741Z,32.77
2022-11-16T13:23:38.813Z,46.97
2022-11-16T13:26:14.539Z,34.30
2022-11-16T13:28:50.094Z,26.70
2022-11-16T13:31:22.993Z,21.63
2022-11-16T13:33:57.412Z,18.83
2022-11-16T13:36:48.290Z,27.33
2022-11-16T13:39:22.530Z,56.23
2022-11-16T13:41:53.336Z,41.47
2022-11-16T13:44:30.037Z,44.70
2022-11-16T13:47:04.872Z,32.03
2022-11-16T13:49:38.073Z,28.23
2022-11-16T13:52:23.102Z,26.90
2022-11-16T13:54:55.682Z,30.87
2022-11-16T13:57:27.396Z,27.33
2022-11-16T14:00:13.695Z,24.30
2022-11-16T14:02:43.629Z,24.87
2022-11-16T14:05:38.931Z,29.70
2022-11-16T14:08:40.937Z,45.33
2022-11-16T14:11:32.160Z,42.57
2022-11-16T14:14:02.734Z,55.57
2022-11-16T14:16:55.527Z,37.50
2022-11-16T14:19:55.131Z,36.73
2022-11-16T14:22:46.716Z,85.00
2022-11-16T14:25:33.836Z,45.97
2022-11-16T14:28:26.562Z,126.57
2022-11-16T14:31:08.575Z,83.03
2022-11-16T14:33:39.093Z,40.77
2022-11-16T14:36:10.837Z,58.77
2022-11-16T14:38:41.708Z,37.07
2022-11-16T14:41:21.438Z,27.30
2022-11-16T14:43:53.553Z,32.97
2022-11-16T14:46:26.310Z,54.50
2022-11-16T14:48:57.982Z,117.87
2022-11-16T14:51:30.766Z,137.93
2022-11-16T14:54:03.216Z,85.63
2022-11-16T14:56:31.909Z,67.77
2022-11-16T14:59:04.538Z,50.87
2022-11-16T15:01:37.037Z,46.10
2022-11-16T15:04:08.396Z,52.43
2022-11-16T15:06:42.301Z,46.03
2022-11-16T15:09:20.715Z,42.50
2022-11-16T15:12:08.472Z,38.73
2022-11-16T15:14:43.216Z,79.27
2022-11-16T15:17:18.315Z,68.85
2022-11-16T15:19:56.616Z,29.60
2022-11-16T15:22:29.983Z,49.87
2022-11-16T15:24:59.950Z,25.15
2022-11-16T15:27:39.347Z,36.87
2022-11-16T15:30:18.673Z,51.93
2022-11-16T15:32:49.679Z,46.03
2022-11-16T15:35:23.087Z,55.77
2022-11-16T15:38:02.997Z,112.77
2022-11-16T15:40:31.996Z,111.17
2022-11-16T15:43:03.023Z,72.30
2022-11-16T15:45:34.029Z,63.70
2022-11-16T15:48:04.474Z,46.00
2022-11-16T15:50:33.515Z,54.00
2022-11-16T15:53:02.191Z,54.93
2022-11-16T15:55:35.539Z,40.47
2022-11-16T15:58:07.811Z,80.53
2022-11-16T16:00:39.328Z,187.77
2022-11-16T16:03:18.535Z,99.43
2022-11-16T16:05:47.292Z,114.67
2022-11-16T16:08:32.433Z,150.30
2022-11-16T16:11:21.405Z,64.23
2022-11-16T16:14:00.138Z,123.67
2022-11-16T16:16:32.437Z,128.60
2022-11-16T16:19:10.461Z,131.73
2022-11-16T16:21:45.756Z,67.00
2022-11-16T16:24:36.523Z,58.50
2022-11-16T16:27:15.504Z,175.33
2022-11-16T16:29:44.905Z,98.10
2022-11-16T16:32:24.671Z,128.50
2022-11-16T16:34:53.807Z,66.77
2022-11-16T16:37:22.778Z,58.80
2022-11-16T16:39:51.488Z,121.40
2022-11-16T16:42:21.719Z,68.10
2022-11-16T16:44:53.440Z,123.23
2022-11-16T16:47:23.625Z,86.50
2022-11-16T16:49:52.537Z,53.17
2022-11-16T16:52:21.681Z,42.40
2022-11-16T16:54:58.687Z,57.30
2022-11-16T16:57:27.684Z,147.87
2022-11-16T16:59:56.718Z,104.90
2022-11-16T17:02:28.897Z,76.20
2022-11-16T17:05:02.919Z,56.63
2022-11-16T17:07:31.932Z,66.77
2022-11-16T17:10:00.834Z,53.07
2022-11-16T17:12:29.661Z,37.57
2022-11-16T17:14:58.570Z,71.73
2022-11-16T17:17:28.779Z,55.57
2022-11-16T17:19:57.479Z,79.40
2022-11-16T17:22:26.397Z,45.33
2022-11-16T17:24:55.367Z,36.90
2022-11-16T17:27:24.137Z,35.97
2022-11-16T17:29:52.822Z,59.53
2022-11-16T17:32:21.711Z,52.00
2022-11-16T17:34:51.727Z,31.17
2022-11-16T17:37:20.670Z,22.20
2022-11-16T17:39:49.606Z,22.60
2022-11-16T17:42:18.385Z,62.03
2022-11-16T17:44:46.963Z,50.77
2022-11-16T17:47:15.611Z,35.07
2022-11-16T17:49:44.364Z,37.20
2022-11-16T17:52:14.748Z,26.13
2022-11-16T17:54:43.338Z,26.30
2022-11-16T17:57:12.996Z,31.33
2022-11-16T17:59:41.768Z,33.33
2022-11-16T18:02:12.509Z,29.03
2022-11-16T18:04:41.110Z,36.43
2022-11-16T18:07:10.067Z,43.30
2022-11-16T18:09:40.318Z,42.30
2022-11-16T18:12:09.154Z,39.97
2022-11-16T18:14:37.991Z,39.77
2022-11-16T18:17:06.612Z,56.60
2022-11-16T18:19:35.485Z,46.97
2022-11-16T18:22:04.238Z,49.40
2022-11-16T18:24:33.267Z,39.53
2022-11-16T18:27:03.773Z,47.00
2022-11-16T18:29:32.590Z,49.60
2022-11-16T18:32:01.600Z,49.97
2022-11-16T18:34:30.749Z,43.73
2022-11-16T18:36:59.507Z,41.10
2022-11-16T18:39:28.210Z,47.20
2022-11-16T18:41:56.799Z,42.87
2022-11-16T18:44:27.021Z,40.27
2022-11-16T18:46:56.856Z,38.83
2022-11-16T18:49:25.780Z,28.17
2022-11-16T18:51:54.440Z,23.37
2022-11-16T18:54:23.190Z,33.10
2022-11-16T18:56:51.842Z,33.57
2022-11-16T18:59:20.557Z,31.77
2022-11-16T19:01:50.556Z,28.93
2022-11-16T19:04:19.215Z,28.97
2022-11-16T19:06:47.918Z,25.47
2022-11-16T19:09:16.538Z,25.77
2022-11-16T19:11:45.412Z,26.90
2022-11-16T19:14:14.172Z,27.93
2022-11-16T19:16:52.481Z,25.70
2022-11-16T19:19:24.672Z,25.93
2022-11-16T19:21:53.322Z,25.73
2022-11-16T19:24:22.291Z,25.93
2022-11-16T19:26:55.321Z,26.00
2022-11-16T19:29:23.972Z,26.67
2022-11-16T19:31:54.445Z,27.17
2022-11-16T19:34:31.976Z,24.27
2022-11-16T19:37:02.169Z,26.87
2022-11-16T19:39:31.347Z,30.57
2022-11-16T19:42:00.253Z,29.70
2022-11-16T19:44:31.043Z,27.60
2022-11-16T19:47:01.593Z,33.07
2022-11-16T19:49:44.614Z,30.10
2022-11-16T19:52:13.796Z,29.80
2022-11-16T19:54:42.525Z,39.73
2022-11-16T19:57:11.810Z,42.73
2022-11-16T19:59:40.873Z,29.20
2022-11-16T20:02:13.350Z,28.67
2022-11-16T20:04:44.430Z,29.93
2022-11-16T20:07:13.691Z,29.50
2022-11-16T20:09:42.501Z,30.97
2022-11-16T20:12:11.168Z,30.10
2022-11-16T20:14:39.930Z,30.63
2022-11-16T20:17:08.705Z,31.13
2022-11-16T20:19:37.324Z,30.63
2022-11-16T20:22:11.157Z,31.67
2022-11-16T20:24:39.825Z,27.93
2022-11-16T20:27:08.783Z,26.43
2022-11-16T20:29:37.572Z,32.50
2022-11-16T20:32:06.406Z,37.50
2022-11-16T20:34:35.574Z,50.33
2022-11-16T20:37:04.491Z,38.80
2022-11-16T20:39:37.694Z,36.63
2022-11-16T20:42:06.447Z,39.70
2022-11-16T20:44:37.336Z,43.80
2022-11-16T20:47:07.826Z,42.23
2022-11-16T20:49:36.510Z,32.40
2022-11-16T20:52:05.258Z,38.07
2022-11-16T20:54:35.924Z,41.97
2022-11-16T20:57:04.920Z,44.47
2022-11-16T20:59:34.679Z,41.67
2022-11-16T21:02:03.913Z,46.63
2022-11-16T21:04:34.515Z,49.07
2022-11-16T21:07:03.246Z,40.40
2022-11-16T21:09:51.967Z,41.93
2022-11-16T21:12:44.075Z,39.30
2022-11-16T21:15:15.514Z,40.87
2022-11-16T21:17:47.424Z,42.10
2022-11-16T21:20:32.520Z,40.60
2022-11-16T21:23:03.259Z,42.13
2022-11-16T21:25:34.314Z,44.07
2022-11-16T21:28:09.195Z,41.93
2022-11-16T21:30:39.426Z,37.87
2022-11-16T21:33:10.350Z,40.20
2022-11-16T21:35:42.987Z,38.53
2022-11-16T21:38:11.637Z,37.50
2022-11-16T21:40:40.340Z,41.13
2022-11-16T21:43:11.158Z,41.93
2022-11-16T21:45:39.801Z,42.23
2022-11-16T21:48:09.954Z,37.07
2022-11-16T21:50:41.952Z,38.60
2022-11-16T21:53:15.412Z,37.17
2022-11-16T21:55:52.984Z,37.73
2022-11-16T21:58:23.839Z,36.23
2022-11-16T22:00:55.617Z,35.27
2022-11-16T22:03:28.589Z,38.17
2022-11-16T22:06:17.599Z,35.70
2022-11-16T22:08:48.822Z,40.43
2022-11-16T22:14:09.833Z,43.10
2022-11-16T22:16:40.272Z,37.07
2022-11-16T22:19:09.122Z,41.40
2022-11-16T22:21:37.750Z,36.13
2022-11-16T22:24:06.797Z,36.10
2022-11-16T22:26:35.623Z,34.67
2022-11-16T22:29:05.307Z,35.77
2022-11-16T22:31:36.303Z,31.57
2022-11-16T22:34:07.681Z,38.60
2022-11-16T22:36:36.607Z,39.10
2022-11-16T22:39:05.533Z,42.50
2022-11-16T22:41:34.190Z,38.03
2022-11-16T22:44:04.632Z,34.57
2022-11-16T22:46:37.622Z,46.40
2022-11-16T22:49:07.810Z,41.70
2022-11-16T22:51:36.454Z,39.33
2022-11-16T22:54:07.381Z,42.07
2022-11-16T22:56:36.628Z,46.90
2022-11-16T22:59:06.085Z,39.33
2022-11-16T23:01:38.085Z,41.70
2022-11-16T23:04:07.223Z,58.27
2022-11-16T23:06:35.857Z,48.53
2022-11-16T23:09:04.714Z,51.37
2022-11-16T23:11:51.230Z,42.17
2022-11-16T23:14:37.363Z,42.03
2022-11-16T23:17:08.198Z,40.37
2022-11-16T23:19:56.145Z,105.07
2022-11-16T23:22:44.935Z,53.77
2022-11-16T23:25:34.878Z,84.67
2022-11-16T23:28:08.537Z,52.50
2022-11-16T23:30:38.135Z,40.00
2022-11-16T23:33:10.485Z,38.93
2022-11-16T23:35:42.230Z,41.33
2022-11-16T23:38:12.588Z,44.27
2022-11-16T23:40:44.567Z,48.80
2022-11-16T23:43:34.116Z,44.40
2022-11-16T23:46:02.999Z,52.93
2022-11-16T23:48:36.384Z,40.90
2022-11-16T23:51:05.715Z,44.00
2022-11-16T23:53:37.226Z,35.93
2022-11-16T23:56:07.069Z,41.23
2022-11-16T23:58:35.694Z,51.53
